Time;durP1;ratioP1;P1;durP2;ratioP2;P2;SDS_P1;SDS_P2;PMS_P1;PMS_P2;Temp;Humidity;BMP_temperature;BMP_pressure;BME280_temperature;BME280_humidity;BME280_pressure;Samples;Min_cycle;Max_cycle;Signal;HPM_P1;HPM_P2
2023/08/29 00:02:59;;;;;;;5.10;3.22;;;;;;;14.19;74.73;99499.50;30614748;28;96625;-71
2023/08/29 00:18:00;;;;;;;7.63;3.50;;;;;;;14.11;75.23;99485.53;30615347;28;97061;-81
2023/08/29 00:33:00;;;;;;;6.90;3.90;;;;;;;14.14;75.79;99538.69;30613353;28;97217;-83
2023/08/29 00:48:02;;;;;;;5.00;3.33;;;;;;;13.97;75.84;99441.88;30612574;28;97523;-79
2023/08/29 01:03:02;;;;;;;4.82;2.80;;;;;;;13.91;76.39;99507.00;30610088;28;97136;-80
2023/08/29 01:18:07;;;;;;;4.15;2.72;;;;;;;13.92;76.88;99501.44;30609843;28;97170;-78
2023/08/29 01:33:07;;;;;;;5.40;2.60;;;;;;;13.84;76.99;99432.06;30607585;28;97380;-80
2023/08/29 01:48:10;;;;;;;5.18;2.72;;;;;;;13.65;77.08;99265.94;30635098;28;97184;-77
2023/08/29 02:03:11;;;;;;;4.00;3.17;;;;;;;13.29;77.69;99114.03;30605940;28;97360;-77
2023/08/29 02:18:11;;;;;;;3.08;2.45;;;;;;;13.08;78.44;99134.72;30601698;28;97089;-75
2023/08/29 02:33:11;;;;;;;2.65;2.00;;;;;;;13.10;78.87;99126.47;30601814;28;96833;-81
2023/08/29 02:48:12;;;;;;;2.60;1.70;;;;;;;13.18;79.13;99094.94;30599498;28;105556;-82
2023/08/29 03:03:13;;;;;;;1.73;1.33;;;;;;;13.32;79.53;99141.16;30598723;28;97462;-79
2023/08/29 03:18:14;;;;;;;3.30;1.80;;;;;;;13.52;79.60;99146.44;30597150;28;96686;-69
2023/08/29 03:33:15;;;;;;;2.90;2.00;;;;;;;13.62;79.72;99086.28;30595302;28;96790;-82
2023/08/29 03:48:15;;;;;;;4.20;2.15;;;;;;;13.75;79.75;99083.50;30592647;28;113129;-75
2023/08/29 04:03:15;;;;;;;2.28;1.90;;;;;;;13.88;79.61;99070.00;30589937;28;111730;-69
2023/08/29 04:18:16;;;;;;;4.38;2.20;;;;;;;14.06;79.66;99159.44;30587872;28;101148;-80
2023/08/29 04:33:17;;;;;;;4.43;2.90;;;;;;;14.24;79.52;99142.59;30587934;28;97623;-73
2023/08/29 04:48:18;;;;;;;2.77;2.13;;;;;;;14.39;79.49;99164.53;30603390;28;96985;-82
2023/08/29 05:03:18;;;;;;;3.95;2.20;;;;;;;14.18;79.08;99274.75;30607487;28;97175;-73
2023/08/29 05:18:18;;;;;;;3.90;2.75;;;;;;;14.14;79.89;99174.44;30606544;28;96724;-69
2023/08/29 05:33:19;;;;;;;5.80;3.53;;;;;;;14.20;79.94;99087.84;30604674;28;111007;-80
2023/08/29 05:48:19;;;;;;;6.05;4.72;;;;;;;14.18;80.06;99053.25;30602749;28;97342;-73
2023/08/29 06:03:19;;;;;;;7.55;5.60;;;;;;;14.39;79.73;99102.91;30601269;28;97086;-72
2023/08/29 06:18:20;;;;;;;5.05;4.00;;;;;;;14.53;80.25;99165.22;30598400;28;97395;-76
2023/08/29 06:33:20;;;;;;;6.28;4.50;;;;;;;14.79;79.86;99175.91;30597623;28;97381;-75
2023/08/29 06:48:21;;;;;;;6.63;4.50;;;;;;;14.66;79.67;99190.28;30595036;28;96755;-71
2023/08/29 07:03:21;;;;;;;6.63;5.75;;;;;;;14.77;79.59;99176.13;30592163;28;99240;-76
2023/08/29 07:18:21;;;;;;;6.80;5.50;;;;;;;14.92;79.57;99191.06;30595564;28;110886;-74
2023/08/29 07:33:21;;;;;;;6.18;4.72;;;;;;;15.26;80.08;99186.94;30591782;28;96783;-73
2023/08/29 07:48:22;;;;;;;5.32;4.00;;;;;;;15.79;79.34;99177.34;30590644;28;96738;-75
2023/08/29 08:03:22;;;;;;;5.03;4.00;;;;;;;16.21;78.69;99193.47;30593028;28;96741;-69
2023/08/29 08:18:22;;;;;;;6.07;4.68;;;;;;;16.60;78.46;99227.16;30602197;28;97917;-79
2023/08/29 08:33:24;;;;;;;5.50;4.47;;;;;;;17.13;77.05;99219.97;30608777;28;96804;-79
2023/08/29 08:48:25;;;;;;;7.20;4.43;;;;;;;18.11;76.41;99222.66;30610441;28;96886;-72
2023/08/29 09:03:26;;;;;;;5.75;3.78;;;;;;;18.76;73.90;99201.56;30609546;28;97190;-71
2023/08/29 09:18:29;;;;;;;5.70;4.03;;;;;;;18.28;73.46;99184.97;30607208;28;97602;-67
2023/08/29 09:33:29;;;;;;;6.63;4.30;;;;;;;18.49;72.98;99194.16;30605156;28;97016;-83
2023/08/29 09:48:29;;;;;;;6.13;5.10;;;;;;;18.25;72.20;99193.53;30604283;28;99549;-77
2023/08/29 10:03:30;;;;;;;11.07;5.22;;;;;;;18.23;71.72;99203.75;30601335;28;96655;-70
2023/08/29 10:18:33;;;;;;;9.50;6.63;;;;;;;17.94;71.71;99193.03;30601058;28;97945;-76
2023/08/29 10:33:36;;;;;;;8.30;6.33;;;;;;;17.64;71.90;99206.75;30600057;28;97262;-80
2023/08/29 10:48:39;;;;;;;10.90;6.77;;;;;;;17.40;71.77;99215.72;30597101;28;96982;-70
2023/08/29 11:03:52;;;;;;;8.90;6.53;;;;;;;17.55;71.98;99220.59;30595015;28;97384;-67
2023/08/29 11:19:13;;;;;;;12.40;6.87;;;;;;;18.12;71.82;99218.94;30593749;28;97603;-73
2023/08/29 11:34:18;;;;;;;8.07;6.20;;;;;;;18.03;71.32;99233.84;30592854;28;96750;-78
2023/08/29 11:49:18;;;;;;;10.67;7.63;;;;;;;17.36;70.99;99246.03;30598930;28;97236;-75
2023/08/29 12:04:23;;;;;;;10.10;6.72;;;;;;;17.65;70.92;99244.19;30614266;28;98369;-77
2023/08/29 12:19:23;;;;;;;9.67;5.80;;;;;;;17.36;70.93;99246.03;30611867;28;97393;-69
2023/08/29 12:34:23;;;;;;;10.82;7.57;;;;;;;17.32;70.90;99243.00;30609936;28;96811;-72
2023/08/29 12:49:24;;;;;;;8.55;6.47;;;;;;;17.28;71.37;99238.31;30608728;28;96752;-68
2023/08/29 13:04:24;;;;;;;8.77;6.75;;;;;;;17.18;71.37;99218.25;30603986;28;110957;-70
2023/08/29 13:19:25;;;;;;;7.13;5.90;;;;;;;17.17;71.84;99191.56;30604872;28;97108;-69
2023/08/29 13:34:25;;;;;;;9.85;6.55;;;;;;;17.12;72.11;99196.84;30604363;28;97221;-78
2023/08/29 13:49:26;;;;;;;7.82;5.88;;;;;;;17.13;71.71;99257.66;30604442;28;97241;-78
2023/08/29 14:04:26;;;;;;;10.18;7.40;;;;;;;16.97;72.66;99254.63;30627048;28;96633;-75
2023/08/29 14:19:27;;;;;;;8.55;6.63;;;;;;;17.22;72.73;99273.22;30598889;28;96802;-77
2023/08/29 14:34:27;;;;;;;11.07;8.25;;;;;;;17.32;72.87;99256.47;30597135;28;97422;-80
2023/08/29 14:49:27;;;;;;;11.98;7.32;;;;;;;17.62;72.49;99233.91;30598322;28;99793;-78
2023/08/29 15:04:28;;;;;;;7.68;6.05;;;;;;;17.69;72.08;99220.31;30597679;28;97095;-69
2023/08/29 15:19:28;;;;;;;7.25;6.13;;;;;;;17.59;71.92;99229.81;30596214;28;97240;-71
2023/08/29 15:34:30;;;;;;;8.18;6.30;;;;;;;17.37;72.31;99213.50;30592294;28;113073;-69
2023/08/29 15:49:30;;;;;;;11.50;7.83;;;;;;;17.17;72.86;99205.84;30593354;28;97480;-69
2023/08/29 16:04:31;;;;;;;8.82;6.90;;;;;;;16.80;73.26;99194.50;30592034;28;97103;-70
2023/08/29 16:19:31;;;;;;;8.45;6.45;;;;;;;16.55;74.16;99196.41;30590863;28;97042;-68
2023/08/29 16:34:31;;;;;;;11.38;7.95;;;;;;;16.29;74.54;99221.03;30591640;28;108254;-78
2023/08/29 16:49:32;;;;;;;13.02;9.90;;;;;;;16.14;75.41;99246.47;30607508;28;108883;-76
2023/08/29 17:04:32;;;;;;;10.90;7.57;;;;;;;15.99;75.96;99243.38;30608278;28;103083;-68
2023/08/29 17:19:32;;;;;;;14.23;8.20;;;;;;;15.95;76.39;99248.41;30608485;28;97267;-68
2023/08/29 17:34:33;;;;;;;10.05;7.63;;;;;;;15.84;76.84;99233.06;30606921;28;109298;-69
2023/08/29 17:49:34;;;;;;;9.17;6.77;;;;;;;15.68;76.85;99269.41;30603831;28;96807;-70
2023/08/29 18:04:34;;;;;;;11.43;7.32;;;;;;;15.52;77.84;99281.56;30602836;28;109505;-71
2023/08/29 18:19:34;;;;;;;13.07;8.68;;;;;;;15.48;77.65;99258.91;30600585;28;97201;-71
2023/08/29 18:34:35;;;;;;;11.40;8.13;;;;;;;15.51;78.11;99279.94;30584101;28;110364;-69
2023/08/29 18:49:35;;;;;;;10.52;7.88;;;;;;;15.42;78.07;99284.78;30598639;28;97523;-67
2023/08/29 19:04:36;;;;;;;13.52;8.10;;;;;;;15.28;78.47;99281.44;30598641;28;96750;-67
2023/08/29 19:19:36;;;;;;;13.25;8.45;;;;;;;15.21;78.94;99265.41;30597338;28;96754;-69
2023/08/29 19:34:37;;;;;;;13.88;9.05;;;;;;;15.27;79.41;99252.13;30595162;28;97319;-70
2023/08/29 19:49:38;;;;;;;15.98;8.95;;;;;;;15.29;78.69;99217.84;30593228;28;97121;-68
2023/08/29 20:04:39;;;;;;;9.73;6.90;;;;;;;15.31;79.25;99167.47;30592179;28;96748;-67
2023/08/29 20:19:39;;;;;;;11.40;7.40;;;;;;;15.16;79.74;99165.16;30609077;28;96704;-69
2023/08/29 20:34:40;;;;;;;10.43;7.93;;;;;;;15.10;79.52;99199.06;30611913;28;103388;-70
2023/08/29 20:49:40;;;;;;;13.20;7.10;;;;;;;15.13;80.14;99213.91;30611530;28;97070;-71
2023/08/29 21:04:40;;;;;;;8.48;6.00;;;;;;;15.20;79.74;99247.66;30609877;28;96613;-70
2023/08/29 21:19:41;;;;;;;9.68;5.68;;;;;;;15.21;79.90;99260.06;30607413;28;103383;-68
2023/08/29 21:34:41;;;;;;;7.97;5.15;;;;;;;15.19;80.04;99251.38;30606504;28;108512;-67
2023/08/29 21:49:41;;;;;;;7.50;4.70;;;;;;;15.21;79.96;99265.41;30606477;28;97124;-69
2023/08/29 22:04:42;;;;;;;6.63;4.50;;;;;;;15.23;79.96;99265.19;30605477;28;96728;-71
2023/08/29 22:19:42;;;;;;;5.47;3.58;;;;;;;15.26;80.25;99254.00;30604222;28;97372;-69
2023/08/29 22:34:44;;;;;;;4.30;3.00;;;;;;;15.15;80.23;99238.66;30600935;28;110283;-71
2023/08/29 22:49:45;;;;;;;4.90;2.60;;;;;;;15.10;80.09;99220.53;30600776;28;97157;-71
2023/08/29 23:04:45;;;;;;;4.22;2.60;;;;;;;15.09;80.32;99242.22;30601462;28;97254;-70
2023/08/29 23:19:46;;;;;;;2.58;1.80;;;;;;;15.05;80.23;99215.84;30596959;28;112616;-69
2023/08/29 23:34:47;;;;;;;4.18;2.53;;;;;;;14.99;80.73;99229.34;30598230;28;99470;-70
2023/08/29 23:49:48;;;;;;;6.50;2.97;;;;;;;14.92;80.82;99212.50;30620024;28;97504;-73
